Skip Navigation Links
NOAA logo - Click to go to the NOAA homepage
NOAA's National Weather Service
Alaska Aviation Weather Unit
  NWS logo - Click to go to the NWS homepage
Left Navbar Graphic     02 AKDT = 10 GMT

   
NOAA is celebrating 200 years of science, service, and stewardship. Visit the NOAA 200th celebration Web site to learn more.
USA.gov is the U.S. Government's official Web portal to all Federal, state and local government Web resources and services.
Facebook
NWS on Facebook

AAWU Home :: Display TAF Add Bookmark
METAR PAVL 270453Z AUTO 35005KT 10SM CLR M23/M26 A3001 RMK AO2 SLP163
     T12281256 TSNO $=

METAR PAVL 270553Z AUTO 02006KT 10SM CLR M23/M25 A3001 RMK AO2 SLP162
     T12281250 11189 21250 56008 TSNO $=

PAVL 270653Z AUTO 05003KT 10SM CLR M27/M31 A3001 RMK AO2 SLP162
     I1000 T12721306 TSNO $=

METAR PAVL 270753Z AUTO 06006KT 10SM CLR M26/M29 A3000 RMK AO2 SLP160
     T12611289 TSNO $=

METAR PAVL 270853Z AUTO 04003KT 10SM CLR M27/M31 A3000 RMK AO2 SLP159
     I3000 T12671306 411721289 58003 TSNO $=

METAR PAVL 270953Z AUTO 36005KT 10SM CLR M27/M30 A2999 RMK AO2 SLP156
     T12671300 TSNO $=


NOAA's National Weather Service
Alaska Aviation Weather Unit
6930 Sand Lake Road
Anchorage, AK 99502-1845
Disclaimer
Credits
Glossary
Privacy Policy
About Us
Career Opportunities
Contact AAWU Internet Services Site last modified: April, 17th 2012